createdAt,value
2022-08-17T00:00:06.660Z,43.4490
2022-08-17T00:00:43.800Z,43.5280
2022-08-17T00:00:49.523Z,43.5790
2022-08-17T00:00:55.961Z,43.6220
2022-08-17T00:01:08.723Z,43.5410
2022-08-17T00:01:22.613Z,43.5000
2022-08-17T00:01:51.496Z,43.5610
2022-08-17T00:01:54.403Z,43.6180
2022-08-17T00:02:21.201Z,43.4960
2022-08-17T00:02:26.382Z,43.6120
2022-08-17T00:02:43.192Z,43.7080
2022-08-17T00:02:55.309Z,43.6910
2022-08-17T00:03:06.403Z,43.5220
2022-08-17T00:03:17.561Z,43.4120
2022-08-17T00:03:28.617Z,43.3900
2022-08-17T00:03:41.361Z,43.4390
2022-08-17T00:03:52.424Z,43.3790
2022-08-17T00:04:06.883Z,43.3490
2022-08-17T00:04:20.441Z,43.5490
2022-08-17T00:04:31.496Z,43.4570
2022-08-17T00:04:45.855Z,43.3790
2022-08-17T00:04:59.530Z,43.5610
2022-08-17T00:05:10.618Z,43.4390
2022-08-17T00:05:21.685Z,43.3730
2022-08-17T00:05:32.784Z,43.3370
2022-08-17T00:05:43.858Z,43.3240
2022-08-17T00:05:54.928Z,43.3430
2022-08-17T00:06:05.970Z,43.3180
2022-08-17T00:06:17.042Z,43.3240
2022-08-17T00:06:28.127Z,43.3310
2022-08-17T00:06:39.176Z,43.3180
2022-08-17T00:06:50.254Z,43.3180
2022-08-17T00:07:01.335Z,43.3120
2022-08-17T00:07:12.400Z,43.3060
2022-08-17T00:07:23.533Z,43.3100
2022-08-17T00:07:34.614Z,43.2920
2022-08-17T00:07:45.760Z,43.2840
2022-08-17T00:07:56.793Z,43.2920
2022-08-17T00:08:07.855Z,43.2920
2022-08-17T00:08:18.935Z,43.2980
2022-08-17T00:08:29.985Z,43.2790
2022-08-17T00:08:41.043Z,43.2550
2022-08-17T00:08:52.117Z,43.2550
2022-08-17T00:09:03.182Z,43.2490
2022-08-17T00:09:18.446Z,43.2310
2022-08-17T00:09:31.160Z,43.4490
2022-08-17T00:09:42.238Z,43.3760
2022-08-17T00:09:53.309Z,43.3100
2022-08-17T00:10:04.366Z,43.2730
2022-08-17T00:10:15.452Z,43.2670
2022-08-17T00:10:26.518Z,43.2610
2022-08-17T00:10:37.599Z,43.2610
2022-08-17T00:10:48.655Z,43.2610
2022-08-17T00:10:59.736Z,43.2670
2022-08-17T00:11:10.802Z,43.2610
2022-08-17T00:11:21.840Z,43.2550
2022-08-17T00:11:32.907Z,43.2430
2022-08-17T00:11:43.980Z,43.2310
2022-08-17T00:12:41.604Z,43.4850
2022-08-17T00:12:42.787Z,43.6610
2022-08-17T00:12:43.682Z,43.5940
2022-08-17T00:12:52.141Z,43.6640
2022-08-17T00:13:03.616Z,43.5360
2022-08-17T00:13:14.692Z,43.4120
2022-08-17T00:13:25.765Z,43.3710
2022-08-17T00:13:36.827Z,43.3390
2022-08-17T00:13:47.888Z,43.3280
2022-08-17T00:13:58.934Z,43.3000
2022-08-17T00:14:09.972Z,43.2770
2022-08-17T00:14:21.074Z,43.2700
2022-08-17T00:14:32.141Z,43.2700
2022-08-17T00:14:43.224Z,43.2880
2022-08-17T00:14:54.293Z,43.2700
2022-08-17T00:15:05.365Z,43.2770
2022-08-17T00:15:16.413Z,43.2770
2022-08-17T00:15:27.481Z,43.2770
2022-08-17T00:15:38.594Z,43.2820
2022-08-17T00:15:49.660Z,43.2880
2022-08-17T00:16:00.739Z,43.2820
2022-08-17T00:16:11.807Z,43.2770
2022-08-17T00:16:22.883Z,43.2770
2022-08-17T00:16:55.327Z,43.5020
2022-08-17T00:16:57.740Z,43.5950
2022-08-17T00:17:09.043Z,43.5000
2022-08-17T00:17:20.101Z,43.3930
2022-08-17T00:17:31.173Z,43.3340
2022-08-17T00:17:42.265Z,43.3100
2022-08-17T00:17:53.331Z,43.3040
2022-08-17T00:18:04.378Z,43.2980
2022-08-17T00:18:53.937Z,43.5160
2022-08-17T00:19:06.648Z,43.6030
2022-08-17T00:19:07.601Z,43.6670
2022-08-17T00:19:12.215Z,43.6990
2022-08-17T00:19:23.291Z,43.5280
2022-08-17T00:19:34.352Z,43.4160
2022-08-17T00:19:45.418Z,43.3730
2022-08-17T00:19:56.486Z,43.3460
2022-08-17T00:20:07.538Z,43.3400
2022-08-17T00:20:18.607Z,43.3220
2022-08-17T00:20:34.944Z,43.5340
2022-08-17T00:20:46.167Z,43.4220
2022-08-17T00:20:57.240Z,43.3550
2022-08-17T00:21:10.513Z,43.3400
2022-08-17T00:21:25.147Z,43.4440
2022-08-17T00:22:31.289Z,43.7170
2022-08-17T00:22:31.567Z,43.6790
2022-08-17T00:22:31.783Z,43.5910
2022-08-17T00:22:32.436Z,43.5240
2022-08-17T00:22:44.558Z,43.7500
2022-08-17T00:22:55.629Z,43.5990
2022-08-17T00:23:06.681Z,43.4810
2022-08-17T00:23:17.733Z,43.4320
2022-08-17T00:23:28.790Z,43.3980
2022-08-17T00:23:39.835Z,43.3790
2022-08-17T00:23:56.801Z,43.5850
2022-08-17T00:24:07.853Z,43.4830
2022-08-17T00:24:18.911Z,43.3850
2022-08-17T00:24:29.973Z,43.3590
2022-08-17T00:24:41.070Z,43.3340
2022-08-17T00:24:52.143Z,43.3220
2022-08-17T00:25:03.198Z,43.3160
2022-08-17T00:25:14.267Z,43.3100
2022-08-17T00:25:25.333Z,43.3160
2022-08-17T00:25:36.390Z,43.3100
2022-08-17T00:25:47.460Z,43.3100
2022-08-17T00:25:58.523Z,43.3220
2022-08-17T00:26:09.579Z,43.3100
2022-08-17T00:26:43.180Z,43.3220
2022-08-17T00:26:43.999Z,43.5340
2022-08-17T00:26:54.597Z,43.6220
2022-08-17T00:27:05.668Z,43.5000
2022-08-17T00:27:16.763Z,43.4040
2022-08-17T00:27:27.852Z,43.3730
2022-08-17T00:27:38.894Z,43.3520
2022-08-17T00:27:50.001Z,43.3340
2022-08-17T00:28:01.043Z,43.3220
2022-08-17T00:28:12.106Z,43.3220
2022-08-17T00:28:23.153Z,43.3040
2022-08-17T00:28:34.237Z,43.3040
2022-08-17T00:28:45.693Z,43.3330
2022-08-17T00:28:56.752Z,43.3040
2022-08-17T00:29:07.824Z,43.2850
2022-08-17T00:29:19.849Z,43.2850
2022-08-17T00:29:31.445Z,43.3650
2022-08-17T00:29:42.511Z,43.3220
2022-08-17T00:29:53.597Z,43.3160
2022-08-17T00:30:04.670Z,43.3100
2022-08-17T00:30:15.726Z,43.3100
2022-08-17T00:30:26.770Z,43.3100
2022-08-17T00:30:51.104Z,43.2870
2022-08-17T00:30:54.780Z,43.5040
2022-08-17T00:31:05.823Z,43.4160
2022-08-17T00:31:16.886Z,43.3670
2022-08-17T00:31:27.959Z,43.3430
2022-08-17T00:31:39.021Z,43.3200
2022-08-17T00:31:50.064Z,43.3260
2022-08-17T00:32:01.130Z,43.3120
2022-08-17T00:33:14.032Z,43.5950
2022-08-17T00:33:15.410Z,43.6950
2022-08-17T00:33:15.640Z,43.7190
2022-08-17T00:33:23.256Z,43.7410
2022-08-17T00:33:26.218Z,43.7620
2022-08-17T00:33:37.513Z,43.6270
2022-08-17T00:33:48.578Z,43.5260
2022-08-17T00:33:59.659Z,43.4710
2022-08-17T00:34:10.743Z,43.4480
2022-08-17T00:34:21.820Z,43.4260
2022-08-17T00:34:32.892Z,43.3950
2022-08-17T00:34:44.706Z,43.4320
2022-08-17T00:34:55.773Z,43.3770
2022-08-17T00:35:06.823Z,43.3710
2022-08-17T00:35:17.905Z,43.3710
2022-08-17T00:35:28.961Z,43.3830
2022-08-17T00:35:40.025Z,43.3590
2022-08-17T00:35:51.093Z,43.3650
2022-08-17T00:36:02.166Z,43.3590
2022-08-17T00:36:13.241Z,43.3530
2022-08-17T00:36:24.295Z,43.3320
2022-08-17T00:36:35.372Z,43.3120
2022-08-17T00:36:46.537Z,43.3200
2022-08-17T00:36:57.553Z,43.3200
2022-08-17T00:37:08.635Z,43.3320
2022-08-17T00:37:19.708Z,43.3200
2022-08-17T00:37:30.774Z,43.3120
2022-08-17T00:37:41.849Z,43.3200
2022-08-17T00:37:52.953Z,43.3200
2022-08-17T00:38:04.013Z,43.3260
2022-08-17T00:38:15.617Z,43.3430
2022-08-17T00:38:26.687Z,43.3320
2022-08-17T00:38:37.755Z,43.3060
2022-08-17T00:38:48.811Z,43.3060
2022-08-17T00:38:59.877Z,43.3010
2022-08-17T00:39:10.941Z,43.2890
2022-08-17T00:39:21.994Z,43.2710
2022-08-17T00:39:33.133Z,43.2830
2022-08-17T00:39:44.298Z,43.3010
2022-08-17T00:39:55.544Z,43.3120
2022-08-17T00:40:06.717Z,43.3360
2022-08-17T00:40:17.817Z,43.3420
2022-08-17T00:40:39.825Z,43.3480
2022-08-17T00:40:45.864Z,43.5710
2022-08-17T00:40:59.506Z,43.5730
2022-08-17T00:41:10.673Z,43.4650
2022-08-17T00:41:21.714Z,43.4160
2022-08-17T00:41:32.806Z,43.4150
2022-08-17T00:41:43.864Z,43.3970
2022-08-17T00:41:54.966Z,43.4150
2022-08-17T00:42:08.781Z,43.5420
2022-08-17T00:42:19.842Z,43.4560
2022-08-17T00:42:31.379Z,43.4200
2022-08-17T00:42:42.543Z,43.4440
2022-08-17T00:42:53.795Z,43.4200
2022-08-17T00:43:04.843Z,43.4260
2022-08-17T00:43:15.880Z,43.3990
2022-08-17T00:43:26.950Z,43.3750
2022-08-17T00:43:38.023Z,43.3810
2022-08-17T00:43:49.080Z,43.3750
2022-08-17T00:44:00.152Z,43.3690
2022-08-17T00:44:11.225Z,43.3750
2022-08-17T00:44:22.288Z,43.3750
2022-08-17T00:44:39.251Z,43.5870
2022-08-17T00:44:50.323Z,43.5090
2022-08-17T00:45:01.365Z,43.4260
2022-08-17T00:45:12.422Z,43.4030
2022-08-17T00:45:23.489Z,43.3930
2022-08-17T00:45:34.533Z,43.3890
2022-08-17T00:45:45.644Z,43.3970
2022-08-17T00:45:56.723Z,43.3970
2022-08-17T00:46:07.786Z,43.3970
2022-08-17T00:46:18.853Z,43.4030
2022-08-17T00:46:29.920Z,43.4030
2022-08-17T00:46:40.975Z,43.3990
2022-08-17T00:46:52.040Z,43.3810
2022-08-17T00:47:03.106Z,43.3810
2022-08-17T00:47:14.192Z,43.3750
2022-08-17T00:47:25.279Z,43.3810
2022-08-17T00:47:36.367Z,43.3750
2022-08-17T00:47:47.436Z,43.3690
2022-08-17T00:47:58.520Z,43.3560
2022-08-17T00:48:26.176Z,43.3560
2022-08-17T00:48:29.017Z,43.5810
2022-08-17T00:48:40.998Z,43.6290
2022-08-17T00:48:52.065Z,43.4810
2022-08-17T00:49:03.115Z,43.4320
2022-08-17T00:49:14.184Z,43.4210
2022-08-17T00:49:25.225Z,43.4090
2022-08-17T00:49:36.284Z,43.4210
2022-08-17T00:49:47.359Z,43.4270
2022-08-17T00:49:58.426Z,43.4380
2022-08-17T00:50:09.512Z,43.4380
2022-08-17T00:50:20.566Z,43.4320
2022-08-17T00:50:31.605Z,43.4210
2022-08-17T00:50:42.676Z,43.4050
2022-08-17T00:50:53.725Z,43.3870
2022-08-17T00:51:04.843Z,43.3990
2022-08-17T00:51:15.924Z,43.4210
2022-08-17T00:51:27.022Z,43.3990
2022-08-17T00:51:38.080Z,43.3810
2022-08-17T00:51:49.178Z,43.3930
2022-08-17T00:52:00.235Z,43.3870
2022-08-17T00:52:12.047Z,43.3830
2022-08-17T00:52:24.005Z,43.4660
2022-08-17T00:52:35.073Z,43.4110
2022-08-17T00:52:46.188Z,43.3810
2022-08-17T00:52:57.200Z,43.3830
2022-08-17T00:53:08.397Z,43.3690
2022-08-17T00:53:19.481Z,43.3930
2022-08-17T00:53:30.560Z,43.3870
2022-08-17T00:53:41.626Z,43.3810
2022-08-17T00:53:52.712Z,43.3810
2022-08-17T00:54:03.768Z,43.3770
2022-08-17T00:54:14.806Z,43.3650
2022-08-17T00:54:25.905Z,43.3480
2022-08-17T00:54:41.854Z,43.3630
2022-08-17T00:54:53.960Z,43.5620
2022-08-17T00:55:04.996Z,43.4750
2022-08-17T00:55:16.056Z,43.3890
2022-08-17T00:55:27.120Z,43.3440
2022-08-17T00:55:38.189Z,43.3500
2022-08-17T00:55:49.282Z,43.3380
2022-08-17T00:56:00.346Z,43.3320
2022-08-17T00:56:11.418Z,43.3380
2022-08-17T00:56:22.457Z,43.3200
2022-08-17T00:56:33.518Z,43.3320
2022-08-17T00:56:44.584Z,43.3260
2022-08-17T00:56:55.637Z,43.3380
2022-08-17T00:57:06.704Z,43.3380
2022-08-17T00:57:18.094Z,43.3560
2022-08-17T00:57:29.166Z,43.3480
2022-08-17T00:57:40.207Z,43.3650
2022-08-17T00:57:55.221Z,43.3640
2022-08-17T00:58:06.724Z,43.5890
2022-08-17T00:58:17.825Z,43.4690
2022-08-17T00:58:36.369Z,43.6350
2022-08-17T00:58:48.015Z,43.6350
2022-08-17T00:58:59.076Z,43.4950
2022-08-17T00:59:10.143Z,43.4420
2022-08-17T00:59:21.205Z,43.4170
2022-08-17T00:59:32.266Z,43.4150
2022-08-17T00:59:43.316Z,43.4090
2022-08-17T01:00:02.588Z,43.3970
2022-08-17T01:00:11.337Z,43.6230
2022-08-17T01:00:22.426Z,43.5540
2022-08-17T01:00:33.487Z,43.4840
2022-08-17T01:00:44.549Z,43.4480
2022-08-17T01:00:55.640Z,43.4360
2022-08-17T01:01:06.804Z,43.4600
2022-08-17T01:01:21.913Z,43.4700
2022-08-17T01:01:33.453Z,43.6900
2022-08-17T01:01:44.506Z,43.5620
2022-08-17T01:01:55.565Z,43.4930
2022-08-17T01:02:06.638Z,43.4660
2022-08-17T01:02:17.695Z,43.4600
2022-08-17T01:02:28.775Z,43.4480
2022-08-17T01:02:43.065Z,43.5760
2022-08-17T01:02:54.594Z,43.5500
2022-08-17T01:03:05.917Z,43.5030
2022-08-17T01:03:16.993Z,43.4600
2022-08-17T01:03:28.102Z,43.4360
2022-08-17T01:03:39.156Z,43.4210
2022-08-17T01:03:50.216Z,43.4030
2022-08-17T01:04:01.291Z,43.3970
2022-08-17T01:04:12.336Z,43.3830
2022-08-17T01:04:23.414Z,43.3910
2022-08-17T01:04:34.482Z,43.3810
2022-08-17T01:04:45.516Z,43.3690
2022-08-17T01:04:56.571Z,43.3870
2022-08-17T01:05:07.629Z,43.3720
2022-08-17T01:05:19.073Z,43.4030
2022-08-17T01:05:30.575Z,43.4270
2022-08-17T01:05:42.323Z,43.4170
2022-08-17T01:05:53.637Z,43.4780
2022-08-17T01:06:04.890Z,43.4720
2022-08-17T01:06:16.123Z,43.4720
2022-08-17T01:06:27.414Z,43.4660
2022-08-17T01:06:38.493Z,43.4360
2022-08-17T01:06:49.607Z,43.4300
2022-08-17T01:07:00.665Z,43.4230
2022-08-17T01:07:11.747Z,43.4230
2022-08-17T01:07:22.824Z,43.4300
2022-08-17T01:07:33.876Z,43.4360
2022-08-17T01:07:49.106Z,43.6330
2022-08-17T01:08:00.183Z,43.5050
2022-08-17T01:08:11.226Z,43.4700
2022-08-17T01:08:22.296Z,43.4330
2022-08-17T01:08:33.389Z,43.4500
2022-08-17T01:08:44.436Z,43.4440
2022-08-17T01:08:57.781Z,43.4500
2022-08-17T01:09:09.127Z,43.5660
2022-08-17T01:09:20.207Z,43.4780
2022-08-17T01:09:31.267Z,43.4720
2022-08-17T01:09:42.301Z,43.4600
2022-08-17T01:09:53.363Z,43.4420
2022-08-17T01:10:04.426Z,43.4250
2022-08-17T01:10:57.176Z,43.6880
2022-08-17T01:10:57.494Z,43.7960
2022-08-17T01:11:00.424Z,43.4480
2022-08-17T01:11:06.395Z,43.8100
2022-08-17T01:11:17.455Z,43.6580
2022-08-17T01:11:28.523Z,43.5370
2022-08-17T01:11:39.604Z,43.4760
2022-08-17T01:11:50.658Z,43.4600
2022-08-17T01:12:01.734Z,43.4480
2022-08-17T01:12:12.783Z,43.4250
2022-08-17T01:12:23.848Z,43.4050
2022-08-17T01:12:34.906Z,43.4150
2022-08-17T01:12:46.037Z,43.3970
2022-08-17T01:12:57.123Z,43.3990
2022-08-17T01:13:08.166Z,43.4050
2022-08-17T01:13:19.213Z,43.4170
2022-08-17T01:13:30.284Z,43.4050
2022-08-17T01:13:41.899Z,43.4110
2022-08-17T01:13:53.017Z,43.4370
2022-08-17T01:14:04.078Z,43.4170
2022-08-17T01:14:15.156Z,43.3990
2022-08-17T01:14:26.286Z,43.3990
2022-08-17T01:14:37.352Z,43.3990
2022-08-17T01:14:48.433Z,43.3870
2022-08-17T01:14:59.485Z,43.3720
2022-08-17T01:15:10.545Z,43.3640
2022-08-17T01:15:21.616Z,43.3440
2022-08-17T01:15:32.655Z,43.3270
2022-08-17T01:15:46.250Z,43.3330
2022-08-17T01:15:57.462Z,43.4660
2022-08-17T01:16:08.523Z,43.3910
2022-08-17T01:16:19.606Z,43.3600
2022-08-17T01:16:30.693Z,43.3440
2022-08-17T01:16:41.754Z,43.3600
2022-08-17T01:16:52.834Z,43.3760
2022-08-17T01:17:03.905Z,43.3870
2022-08-17T01:17:14.954Z,43.3870
2022-08-17T01:17:26.016Z,43.3940
2022-08-17T01:17:37.076Z,43.3870
2022-08-17T01:17:48.125Z,43.4050
2022-08-17T01:17:59.166Z,43.4090
2022-08-17T01:18:10.205Z,43.4090
2022-08-17T01:18:21.295Z,43.4150
2022-08-17T01:18:32.324Z,43.4520
2022-08-17T01:18:43.406Z,43.4400
2022-08-17T01:18:54.467Z,43.4520
2022-08-17T01:19:05.539Z,43.4400
2022-08-17T01:19:16.585Z,43.4210
2022-08-17T01:19:27.635Z,43.4350
2022-08-17T01:19:38.686Z,43.4270
2022-08-17T01:19:49.736Z,43.4210
2022-08-17T01:20:00.872Z,43.4150
2022-08-17T01:20:11.936Z,43.4030
2022-08-17T01:20:23.006Z,43.3910
2022-08-17T01:20:42.633Z,43.3970
2022-08-17T01:20:51.026Z,43.6270
2022-08-17T01:21:02.087Z,43.5430
2022-08-17T01:21:13.155Z,43.4760
2022-08-17T01:21:24.196Z,43.4520
2022-08-17T01:21:35.255Z,43.4150
2022-08-17T01:21:46.306Z,43.4030
2022-08-17T01:21:57.375Z,43.3970
2022-08-17T01:22:08.426Z,43.3780
2022-08-17T01:22:19.486Z,43.3540
2022-08-17T01:22:30.547Z,43.3520
2022-08-17T01:22:41.616Z,43.3520
2022-08-17T01:22:52.684Z,43.3330
2022-08-17T01:23:03.725Z,43.3520
2022-08-17T01:23:20.650Z,43.3480
2022-08-17T01:23:31.753Z,43.5900
2022-08-17T01:23:42.838Z,43.4940
2022-08-17T01:23:53.918Z,43.4150
2022-08-17T01:24:04.977Z,43.3660
2022-08-17T01:24:16.025Z,43.3540
2022-08-17T01:24:27.104Z,43.3480
2022-08-17T01:24:38.174Z,43.3600
2022-08-17T01:24:49.246Z,43.3480
2022-08-17T01:25:00.327Z,43.3480
2022-08-17T01:25:11.366Z,43.3310
2022-08-17T01:25:22.418Z,43.3310
2022-08-17T01:25:33.504Z,43.3480
2022-08-17T01:25:44.577Z,43.3480
2022-08-17T01:26:00.334Z,43.5600
2022-08-17T01:26:11.406Z,43.4210
2022-08-17T01:26:22.450Z,43.3600
2022-08-17T01:26:33.512Z,43.3430
2022-08-17T01:26:44.563Z,43.3310
2022-08-17T01:26:56.603Z,43.3130
2022-08-17T01:27:10.340Z,43.4090
2022-08-17T01:27:21.935Z,43.4450
2022-08-17T01:27:33.005Z,43.3540
2022-08-17T01:27:44.090Z,43.3250
2022-08-17T01:27:55.140Z,43.3150
2022-08-17T01:28:06.185Z,43.2970
2022-08-17T01:28:33.385Z,43.2800
2022-08-17T01:28:54.743Z,43.6390
2022-08-17T01:28:54.767Z,43.5170
2022-08-17T01:29:06.778Z,43.6390
2022-08-17T01:29:17.823Z,43.4470
2022-08-17T01:29:28.896Z,43.3920
2022-08-17T01:29:39.963Z,43.3620
2022-08-17T01:29:51.022Z,43.3680
2022-08-17T01:30:02.162Z,43.3620
2022-08-17T01:30:56.662Z,43.5610
2022-08-17T01:30:57.297Z,43.3430
2022-08-17T01:30:58.255Z,43.6390
2022-08-17T01:31:04.056Z,43.6530
2022-08-17T01:31:15.135Z,43.4880
2022-08-17T01:31:26.204Z,43.3860
2022-08-17T01:31:37.256Z,43.3620
2022-08-17T01:31:48.322Z,43.3490
2022-08-17T01:31:59.446Z,43.3430
2022-08-17T01:32:10.474Z,43.3430
2022-08-17T01:32:21.736Z,43.3430
2022-08-17T01:32:32.813Z,43.3250
2022-08-17T01:32:43.866Z,43.3310
2022-08-17T01:32:54.926Z,43.3130
2022-08-17T01:33:05.996Z,43.3130
2022-08-17T01:33:17.063Z,43.2950
2022-08-17T01:33:28.126Z,43.2950
2022-08-17T01:33:39.176Z,43.2640
2022-08-17T01:33:50.433Z,43.2640
2022-08-17T01:34:01.857Z,43.2460
2022-08-17T01:34:13.160Z,43.2700
2022-08-17T01:34:24.200Z,43.2400
2022-08-17T01:34:43.621Z,43.4500
2022-08-17T01:34:55.057Z,43.4880
2022-08-17T01:35:06.091Z,43.3560
2022-08-17T01:35:17.159Z,43.3010
2022-08-17T01:35:28.206Z,43.2820
2022-08-17T01:35:39.278Z,43.2700
2022-08-17T01:35:50.356Z,43.2700
2022-08-17T01:36:01.419Z,43.2760
2022-08-17T01:36:12.489Z,43.2640
2022-08-17T01:36:23.581Z,43.2820
2022-08-17T01:36:34.619Z,43.2760
2022-08-17T01:36:45.687Z,43.2820
2022-08-17T01:36:56.765Z,43.2820
2022-08-17T01:37:07.809Z,43.3000
2022-08-17T01:37:18.878Z,43.2820
2022-08-17T01:37:29.948Z,43.2880
2022-08-17T01:37:41.019Z,43.2940
2022-08-17T01:37:52.059Z,43.2880
2022-08-17T01:38:03.117Z,43.3050
2022-08-17T01:38:14.169Z,43.2940
2022-08-17T01:38:27.121Z,43.2880
2022-08-17T01:38:38.437Z,43.4030
2022-08-17T01:38:49.491Z,43.3430
2022-08-17T01:39:00.532Z,43.3430
2022-08-17T01:39:11.589Z,43.3250
2022-08-17T01:39:22.678Z,43.3370
2022-08-17T01:39:33.762Z,43.3490
2022-08-17T01:39:44.904Z,43.3620
2022-08-17T01:39:56.023Z,43.3560
2022-08-17T01:40:07.236Z,43.3680
2022-08-17T01:40:18.369Z,43.3620
2022-08-17T01:40:29.428Z,43.3620
2022-08-17T01:40:40.500Z,43.3740
2022-08-17T01:40:57.501Z,43.3740
2022-08-17T01:41:08.511Z,43.5980
2022-08-17T01:41:19.567Z,43.5190
2022-08-17T01:41:30.630Z,43.4270
2022-08-17T01:41:41.693Z,43.4030
2022-08-17T01:41:52.727Z,43.3800
2022-08-17T01:42:03.786Z,43.4030
2022-08-17T01:42:14.840Z,43.3910
2022-08-17T01:42:25.889Z,43.3850
2022-08-17T01:42:36.966Z,43.3850
2022-08-17T01:42:48.155Z,43.4270
2022-08-17T01:42:59.509Z,43.4520
2022-08-17T01:43:10.571Z,43.4350
2022-08-17T01:43:21.640Z,43.4150
2022-08-17T01:43:32.708Z,43.3850
2022-08-17T01:43:43.910Z,43.3720
2022-08-17T01:43:54.974Z,43.4030
2022-08-17T01:44:06.029Z,43.4270
2022-08-17T01:44:17.079Z,43.4330
2022-08-17T01:44:28.159Z,43.4210
2022-08-17T01:44:39.227Z,43.4270
2022-08-17T01:44:50.289Z,43.4150
2022-08-17T01:45:01.349Z,43.4150
2022-08-17T01:45:12.433Z,43.3970
2022-08-17T01:45:23.499Z,43.3970
2022-08-17T01:45:34.559Z,43.3970
2022-08-17T01:45:45.628Z,43.3940
2022-08-17T01:46:03.509Z,43.3820
2022-08-17T01:46:13.656Z,43.6020
2022-08-17T01:46:24.691Z,43.5420
2022-08-17T01:46:35.746Z,43.4820
2022-08-17T01:46:46.817Z,43.4700
2022-08-17T01:46:57.898Z,43.4760
2022-08-17T01:47:12.328Z,43.6390
2022-08-17T01:47:23.818Z,43.5660
2022-08-17T01:47:36.055Z,43.5130
2022-08-17T01:47:47.217Z,43.5660
2022-08-17T01:47:58.267Z,43.5130
2022-08-17T01:48:09.309Z,43.4640
2022-08-17T01:48:20.370Z,43.4580
2022-08-17T01:48:31.429Z,43.4450
2022-08-17T01:48:42.466Z,43.4500
2022-08-17T01:48:53.527Z,43.4390
2022-08-17T01:49:04.598Z,43.4500
2022-08-17T01:49:15.659Z,43.4580
2022-08-17T01:49:26.741Z,43.4760
2022-08-17T01:49:37.809Z,43.5070
2022-08-17T01:49:48.881Z,43.5310
2022-08-17T01:49:59.933Z,43.5190
2022-08-17T01:50:10.989Z,43.5250
2022-08-17T01:50:22.029Z,43.5310
2022-08-17T01:50:33.089Z,43.5310
2022-08-17T01:50:44.129Z,43.5490
2022-08-17T01:50:55.169Z,43.5540
2022-08-17T01:51:06.218Z,43.5550
2022-08-17T01:51:17.270Z,43.5550
2022-08-17T01:51:28.308Z,43.5740
2022-08-17T01:51:39.386Z,43.5670
2022-08-17T01:51:50.449Z,43.5670
2022-08-17T01:52:01.534Z,43.5610
2022-08-17T01:52:12.589Z,43.5740
2022-08-17T01:52:23.650Z,43.5800
2022-08-17T01:52:34.717Z,43.5610
2022-08-17T01:52:45.765Z,43.5490
2022-08-17T01:52:56.839Z,43.5430
2022-08-17T01:53:07.928Z,43.5490
2022-08-17T01:53:19.697Z,43.5720
2022-08-17T01:53:30.769Z,43.5310
2022-08-17T01:53:41.820Z,43.5250
2022-08-17T01:53:52.882Z,43.5370
2022-08-17T01:54:03.947Z,43.5490
2022-08-17T01:54:14.998Z,43.5610
2022-08-17T01:54:26.067Z,43.5610
2022-08-17T01:54:37.132Z,43.5430
2022-08-17T01:54:48.309Z,43.5490
2022-08-17T01:54:59.378Z,43.5610
2022-08-17T01:55:10.419Z,43.5550
2022-08-17T01:55:25.869Z,43.5740
2022-08-17T01:55:38.457Z,43.8040
2022-08-17T01:55:49.527Z,43.7220
2022-08-17T01:56:00.569Z,43.6490
2022-08-17T01:56:11.628Z,43.6190
2022-08-17T01:56:22.696Z,43.6060
2022-08-17T01:56:33.767Z,43.6000
2022-08-17T01:56:47.091Z,43.5880
2022-08-17T01:56:58.570Z,43.7340
2022-08-17T01:57:09.639Z,43.6310
2022-08-17T01:57:20.698Z,43.5940
2022-08-17T01:57:31.776Z,43.5740
2022-08-17T01:57:42.819Z,43.5550
2022-08-17T01:57:53.877Z,43.5550
2022-08-17T01:58:04.938Z,43.5550
2022-08-17T01:58:15.977Z,43.5430
2022-08-17T01:58:27.051Z,43.5670
2022-08-17T01:58:38.128Z,43.5670
2022-08-17T01:58:49.192Z,43.5550
2022-08-17T01:59:00.247Z,43.5550
2022-08-17T01:59:11.293Z,43.5640
2022-08-17T01:59:22.349Z,43.5590
2022-08-17T01:59:33.414Z,43.5700
2022-08-17T01:59:44.479Z,43.5640
2022-08-17T01:59:55.558Z,43.5640
2022-08-17T02:00:06.611Z,43.5470
2022-08-17T02:00:17.659Z,43.5470
2022-08-17T02:00:28.786Z,43.5410
2022-08-17T02:00:59.474Z,43.7450
2022-08-17T02:01:02.767Z,43.8520
2022-08-17T02:01:13.866Z,43.7200
2022-08-17T02:01:24.976Z,43.6100
2022-08-17T02:01:36.088Z,43.5760
2022-08-17T02:01:47.272Z,43.5470
2022-08-17T02:01:58.488Z,43.5270
2022-08-17T02:02:09.568Z,43.5130
2022-08-17T02:02:30.874Z,43.5080
2022-08-17T02:02:37.559Z,43.7120
2022-08-17T02:02:48.778Z,43.6140
2022-08-17T02:03:00.169Z,43.5530
2022-08-17T02:03:11.246Z,43.5150
2022-08-17T02:03:22.298Z,43.4940
2022-08-17T02:03:33.349Z,43.4640
2022-08-17T02:03:53.386Z,43.4580
2022-08-17T02:04:01.958Z,43.6590
2022-08-17T02:04:13.098Z,43.6250
2022-08-17T02:04:24.158Z,43.5150
2022-08-17T02:04:35.232Z,43.4860
2022-08-17T02:04:46.299Z,43.4530
2022-08-17T02:04:57.489Z,43.4350
2022-08-17T02:05:08.556Z,43.4410
2022-08-17T02:05:19.630Z,43.4470
2022-08-17T02:05:30.697Z,43.4430
2022-08-17T02:05:41.767Z,43.4550
2022-08-17T02:05:52.846Z,43.4490
2022-08-17T02:06:05.261Z,43.4550
2022-08-17T02:06:27.792Z,43.5590
2022-08-17T02:06:45.287Z,43.7040
2022-08-17T02:06:53.765Z,43.7730
2022-08-17T02:07:05.618Z,43.7850
2022-08-17T02:07:16.722Z,43.6100
2022-08-17T02:07:28.635Z,43.5670
2022-08-17T02:07:59.614Z,43.7000
2022-08-17T02:07:59.741Z,43.5080
2022-08-17T02:08:13.078Z,43.7610
2022-08-17T02:08:37.324Z,43.7730
2022-08-17T02:08:57.017Z,43.8460
2022-08-17T02:09:03.858Z,43.8620
2022-08-17T02:09:16.964Z,43.7890
2022-08-17T02:09:29.829Z,43.7280
2022-08-17T02:09:41.415Z,43.7040
2022-08-17T02:09:53.222Z,43.6470
2022-08-17T02:10:05.415Z,43.6160
2022-08-17T02:10:22.374Z,43.7610
2022-08-17T02:10:34.001Z,43.6470
2022-08-17T02:10:46.714Z,43.5670
2022-08-17T02:10:57.956Z,43.5980
2022-08-17T02:11:11.370Z,43.5490
2022-08-17T02:11:22.842Z,43.6470
2022-08-17T02:11:34.677Z,43.5740
2022-08-17T02:11:46.149Z,43.5250
2022-08-17T02:11:57.385Z,43.5370
2022-08-17T02:12:37.900Z,43.5080
2022-08-17T02:12:37.991Z,43.7120
2022-08-17T02:12:42.355Z,43.8220
2022-08-17T02:12:53.561Z,43.6870
2022-08-17T02:13:04.758Z,43.6160
2022-08-17T02:13:15.802Z,43.5610
2022-08-17T02:13:26.871Z,43.5550
2022-08-17T02:13:37.934Z,43.5190
2022-08-17T02:13:49.025Z,43.5150
2022-08-17T02:14:05.985Z,43.7430
2022-08-17T02:14:17.055Z,43.6650
2022-08-17T02:14:28.141Z,43.5740
2022-08-17T02:14:39.215Z,43.5490
2022-08-17T02:14:50.284Z,43.5430
2022-08-17T02:15:01.324Z,43.5430
2022-08-17T02:15:12.460Z,43.5430
2022-08-17T02:15:23.544Z,43.5430
2022-08-17T02:15:34.627Z,43.5490
2022-08-17T02:15:45.685Z,43.5490
2022-08-17T02:15:56.745Z,43.5490
2022-08-17T02:16:07.816Z,43.5490
2022-08-17T02:16:18.864Z,43.5550
2022-08-17T02:16:37.387Z,43.5430
2022-08-17T02:16:46.914Z,43.7730
2022-08-17T02:16:57.986Z,43.6880
2022-08-17T02:17:09.032Z,43.6100
2022-08-17T02:17:20.085Z,43.5920
2022-08-17T02:17:31.153Z,43.5740
2022-08-17T02:17:42.223Z,43.5550
2022-08-17T02:17:54.720Z,43.5860
2022-08-17T02:18:06.014Z,43.6880
2022-08-17T02:18:17.082Z,43.6220
2022-08-17T02:18:28.144Z,43.6100
2022-08-17T02:18:39.216Z,43.6100
2022-08-17T02:18:50.276Z,43.6160
2022-08-17T02:19:01.345Z,43.6100
2022-08-17T02:19:12.404Z,43.5980
2022-08-17T02:19:23.461Z,43.5880
2022-08-17T02:19:34.533Z,43.5880
2022-08-17T02:19:45.576Z,43.6370
2022-08-17T02:19:56.642Z,43.6340
2022-08-17T02:20:07.684Z,43.6590
2022-08-17T02:20:18.772Z,43.6590
2022-08-17T02:20:41.366Z,43.8710
2022-08-17T02:20:52.713Z,43.9790
2022-08-17T02:21:03.782Z,43.8500
2022-08-17T02:21:14.861Z,43.7650
2022-08-17T02:21:25.914Z,43.7440
2022-08-17T02:21:36.966Z,43.7120
2022-08-17T02:21:48.031Z,43.7000
2022-08-17T02:21:59.104Z,43.7320
2022-08-17T02:22:10.156Z,43.7320
2022-08-17T02:22:21.235Z,43.7320
2022-08-17T02:22:32.292Z,43.7320
2022-08-17T02:22:43.349Z,43.7200